sensor_id;sensor_type;location;lat;lon;timestamp;temperature;humidity
2212;DHT22;48849;48.758;9.158;2023-09-08T00:00:15;20.50;99.90
2212;DHT22;48849;48.758;9.158;2023-09-08T00:02:42;20.40;99.90
2212;DHT22;48849;48.758;9.158;2023-09-08T00:05:09;20.40;99.90
2212;DHT22;48849;48.758;9.158;2023-09-08T00:07:36;20.40;99.90
2212;DHT22;48849;48.758;9.158;2023-09-08T00:10:03;20.50;99.90
2212;DHT22;48849;48.758;9.158;2023-09-08T00:12:32;20.40;99.90
2212;DHT22;48849;48.758;9.158;2023-09-08T00:14:58;20.40;99.90
2212;DHT22;48849;48.758;9.158;2023-09-08T00:17:26;20.40;99.90
2212;DHT22;48849;48.758;9.158;2023-09-08T00:19:53;20.40;99.90
2212;DHT22;48849;48.758;9.158;2023-09-08T00:22:19;20.40;99.90
2212;DHT22;48849;48.758;9.158;2023-09-08T00:24:46;20.50;99.90
2212;DHT22;48849;48.758;9.158;2023-09-08T00:27:13;20.50;99.90
2212;DHT22;48849;48.758;9.158;2023-09-08T00:29:41;20.50;99.90
2212;DHT22;48849;48.758;9.158;2023-09-08T00:32:08;20.40;99.90
2212;DHT22;48849;48.758;9.158;2023-09-08T00:34:35;20.40;99.90
2212;DHT22;48849;48.758;9.158;2023-09-08T00:39:38;20.50;99.90
2212;DHT22;48849;48.758;9.158;2023-09-08T00:42:05;20.40;99.90
2212;DHT22;48849;48.758;9.158;2023-09-08T00:44:32;20.50;99.90
2212;DHT22;48849;48.758;9.158;2023-09-08T00:47:00;20.50;99.90
2212;DHT22;48849;48.758;9.158;2023-09-08T00:49:27;20.50;99.90
2212;DHT22;48849;48.758;9.158;2023-09-08T00:51:54;20.40;99.90
2212;DHT22;48849;48.758;9.158;2023-09-08T00:54:21;20.60;99.90
2212;DHT22;48849;48.758;9.158;2023-09-08T00:56:48;20.50;99.90
2212;DHT22;48849;48.758;9.158;2023-09-08T00:59:17;20.60;99.90
2212;DHT22;48849;48.758;9.158;2023-09-08T01:01:44;20.60;99.90
2212;DHT22;48849;48.758;9.158;2023-09-08T01:04:12;20.60;99.90
2212;DHT22;48849;48.758;9.158;2023-09-08T01:06:39;20.60;99.90
2212;DHT22;48849;48.758;9.158;2023-09-08T01:09:07;20.70;99.90
2212;DHT22;48849;48.758;9.158;2023-09-08T01:11:34;20.70;99.90
2212;DHT22;48849;48.758;9.158;2023-09-08T01:14:01;20.70;99.90
2212;DHT22;48849;48.758;9.158;2023-09-08T01:16:27;20.70;99.90
2212;DHT22;48849;48.758;9.158;2023-09-08T01:18:54;20.70;99.90
2212;DHT22;48849;48.758;9.158;2023-09-08T01:21:55;20.70;99.90
2212;DHT22;48849;48.758;9.158;2023-09-08T01:24:44;20.70;99.90
2212;DHT22;48849;48.758;9.158;2023-09-08T01:27:18;20.60;99.90
2212;DHT22;48849;48.758;9.158;2023-09-08T01:29:47;20.60;99.90
2212;DHT22;48849;48.758;9.158;2023-09-08T01:32:15;20.60;99.90
2212;DHT22;48849;48.758;9.158;2023-09-08T01:34:42;20.50;99.90
2212;DHT22;48849;48.758;9.158;2023-09-08T01:37:09;20.50;99.90
2212;DHT22;48849;48.758;9.158;2023-09-08T01:39:36;20.50;99.90
2212;DHT22;48849;48.758;9.158;2023-09-08T01:42:03;20.50;99.90
2212;DHT22;48849;48.758;9.158;2023-09-08T01:44:31;20.50;99.90
2212;DHT22;48849;48.758;9.158;2023-09-08T01:46:58;20.40;99.90
2212;DHT22;48849;48.758;9.158;2023-09-08T01:49:24;20.40;99.90
2212;DHT22;48849;48.758;9.158;2023-09-08T01:51:52;20.40;99.90
2212;DHT22;48849;48.758;9.158;2023-09-08T01:54:18;20.30;99.90
2212;DHT22;48849;48.758;9.158;2023-09-08T01:56:45;20.30;99.90
2212;DHT22;48849;48.758;9.158;2023-09-08T01:59:12;20.30;99.90
2212;DHT22;48849;48.758;9.158;2023-09-08T02:01:40;20.30;99.90
2212;DHT22;48849;48.758;9.158;2023-09-08T02:04:07;20.20;99.90
2212;DHT22;48849;48.758;9.158;2023-09-08T02:06:34;20.20;99.90
2212;DHT22;48849;48.758;9.158;2023-09-08T02:09:00;20.20;99.90
2212;DHT22;48849;48.758;9.158;2023-09-08T02:11:27;20.20;99.90
2212;DHT22;48849;48.758;9.158;2023-09-08T02:13:54;20.10;99.90
2212;DHT22;48849;48.758;9.158;2023-09-08T02:16:20;20.10;99.90
2212;DHT22;48849;48.758;9.158;2023-09-08T02:18:50;20.10;99.90
2212;DHT22;48849;48.758;9.158;2023-09-08T02:21:17;20.00;99.90
2212;DHT22;48849;48.758;9.158;2023-09-08T02:23:43;20.00;99.90
2212;DHT22;48849;48.758;9.158;2023-09-08T02:26:10;20.00;99.90
2212;DHT22;48849;48.758;9.158;2023-09-08T02:28:37;19.90;99.90
2212;DHT22;48849;48.758;9.158;2023-09-08T02:31:04;19.90;99.90
2212;DHT22;48849;48.758;9.158;2023-09-08T02:33:30;19.90;99.90
2212;DHT22;48849;48.758;9.158;2023-09-08T02:36:03;19.90;99.90
2212;DHT22;48849;48.758;9.158;2023-09-08T02:38:30;19.90;99.90
2212;DHT22;48849;48.758;9.158;2023-09-08T02:40:57;19.90;99.90
2212;DHT22;48849;48.758;9.158;2023-09-08T02:43:23;19.90;99.90
2212;DHT22;48849;48.758;9.158;2023-09-08T02:45:50;19.70;99.90
2212;DHT22;48849;48.758;9.158;2023-09-08T02:48:17;19.70;99.90
2212;DHT22;48849;48.758;9.158;2023-09-08T02:50:44;19.70;99.90
2212;DHT22;48849;48.758;9.158;2023-09-08T02:53:12;19.70;99.90
2212;DHT22;48849;48.758;9.158;2023-09-08T02:55:39;19.70;99.90
2212;DHT22;48849;48.758;9.158;2023-09-08T02:58:05;19.70;99.90
2212;DHT22;48849;48.758;9.158;2023-09-08T03:00:32;19.70;99.90
2212;DHT22;48849;48.758;9.158;2023-09-08T03:02:59;19.70;99.90
2212;DHT22;48849;48.758;9.158;2023-09-08T03:05:25;19.80;99.90
2212;DHT22;48849;48.758;9.158;2023-09-08T03:07:52;19.80;99.90
2212;DHT22;48849;48.758;9.158;2023-09-08T03:10:20;19.80;99.90
2212;DHT22;48849;48.758;9.158;2023-09-08T03:12:47;19.60;99.90
2212;DHT22;48849;48.758;9.158;2023-09-08T03:15:14;19.70;99.90
2212;DHT22;48849;48.758;9.158;2023-09-08T03:17:41;19.80;99.90
2212;DHT22;48849;48.758;9.158;2023-09-08T03:20:10;19.80;99.90
2212;DHT22;48849;48.758;9.158;2023-09-08T03:22:38;19.80;99.90
2212;DHT22;48849;48.758;9.158;2023-09-08T03:25:05;19.90;99.90
2212;DHT22;48849;48.758;9.158;2023-09-08T03:27:33;19.90;99.90
2212;DHT22;48849;48.758;9.158;2023-09-08T03:30:00;20.00;99.90
2212;DHT22;48849;48.758;9.158;2023-09-08T03:32:28;20.00;99.90
2212;DHT22;48849;48.758;9.158;2023-09-08T03:34:55;20.00;99.90
2212;DHT22;48849;48.758;9.158;2023-09-08T03:37:22;20.00;99.90
2212;DHT22;48849;48.758;9.158;2023-09-08T03:39:49;20.00;99.90
2212;DHT22;48849;48.758;9.158;2023-09-08T03:42:16;20.00;99.90
2212;DHT22;48849;48.758;9.158;2023-09-08T03:44:44;20.00;99.90
2212;DHT22;48849;48.758;9.158;2023-09-08T03:47:11;20.00;99.90
2212;DHT22;48849;48.758;9.158;2023-09-08T03:49:37;20.00;99.90
2212;DHT22;48849;48.758;9.158;2023-09-08T03:52:04;19.90;99.90
2212;DHT22;48849;48.758;9.158;2023-09-08T03:54:32;19.90;99.90
2212;DHT22;48849;48.758;9.158;2023-09-08T03:56:59;19.90;99.90
2212;DHT22;48849;48.758;9.158;2023-09-08T03:59:26;19.90;99.90
2212;DHT22;48849;48.758;9.158;2023-09-08T04:01:54;19.80;99.90
2212;DHT22;48849;48.758;9.158;2023-09-08T04:04:20;19.80;99.90
2212;DHT22;48849;48.758;9.158;2023-09-08T04:06:47;19.80;99.90
2212;DHT22;48849;48.758;9.158;2023-09-08T04:09:14;19.70;99.90
2212;DHT22;48849;48.758;9.158;2023-09-08T04:11:41;19.70;99.90
2212;DHT22;48849;48.758;9.158;2023-09-08T04:14:07;19.70;99.90
2212;DHT22;48849;48.758;9.158;2023-09-08T04:16:34;19.70;99.90
2212;DHT22;48849;48.758;9.158;2023-09-08T04:19:02;19.60;99.90
2212;DHT22;48849;48.758;9.158;2023-09-08T04:21:29;19.60;99.90
2212;DHT22;48849;48.758;9.158;2023-09-08T04:23:56;19.60;99.90
2212;DHT22;48849;48.758;9.158;2023-09-08T04:26:22;19.60;99.90
2212;DHT22;48849;48.758;9.158;2023-09-08T04:28:49;19.50;99.90
2212;DHT22;48849;48.758;9.158;2023-09-08T04:31:16;19.50;99.90
2212;DHT22;48849;48.758;9.158;2023-09-08T04:33:43;19.50;99.90
2212;DHT22;48849;48.758;9.158;2023-09-08T04:36:11;19.50;99.90
2212;DHT22;48849;48.758;9.158;2023-09-08T04:38:38;19.50;99.90
2212;DHT22;48849;48.758;9.158;2023-09-08T04:41:07;19.40;99.90
2212;DHT22;48849;48.758;9.158;2023-09-08T04:43:33;19.40;99.90
2212;DHT22;48849;48.758;9.158;2023-09-08T04:46:00;19.40;99.90
2212;DHT22;48849;48.758;9.158;2023-09-08T04:48:28;19.30;99.90
2212;DHT22;48849;48.758;9.158;2023-09-08T04:50:55;19.30;99.90
2212;DHT22;48849;48.758;9.158;2023-09-08T04:53:24;19.30;99.90
2212;DHT22;48849;48.758;9.158;2023-09-08T04:55:50;19.40;99.90
2212;DHT22;48849;48.758;9.158;2023-09-08T04:58:17;19.40;99.90
2212;DHT22;48849;48.758;9.158;2023-09-08T05:00:44;19.30;99.90
2212;DHT22;48849;48.758;9.158;2023-09-08T05:03:11;19.30;99.90
2212;DHT22;48849;48.758;9.158;2023-09-08T05:05:37;19.20;99.90
2212;DHT22;48849;48.758;9.158;2023-09-08T05:08:05;19.30;99.90
2212;DHT22;48849;48.758;9.158;2023-09-08T05:10:33;19.30;99.90
2212;DHT22;48849;48.758;9.158;2023-09-08T05:12:59;19.30;99.90
2212;DHT22;48849;48.758;9.158;2023-09-08T05:15:26;19.30;99.90
2212;DHT22;48849;48.758;9.158;2023-09-08T05:17:53;19.30;99.90
2212;DHT22;48849;48.758;9.158;2023-09-08T05:20:20;19.30;99.90
2212;DHT22;48849;48.758;9.158;2023-09-08T05:22:46;19.20;99.90
2212;DHT22;48849;48.758;9.158;2023-09-08T05:25:13;19.20;99.90
2212;DHT22;48849;48.758;9.158;2023-09-08T05:27:41;19.20;99.90
2212;DHT22;48849;48.758;9.158;2023-09-08T05:30:08;19.20;99.90
2212;DHT22;48849;48.758;9.158;2023-09-08T05:32:35;19.10;99.90
2212;DHT22;48849;48.758;9.158;2023-09-08T05:35:02;19.20;99.90
2212;DHT22;48849;48.758;9.158;2023-09-08T05:37:29;19.10;99.90
2212;DHT22;48849;48.758;9.158;2023-09-08T05:39:56;19.20;99.90
2212;DHT22;48849;48.758;9.158;2023-09-08T05:42:23;19.10;99.90
2212;DHT22;48849;48.758;9.158;2023-09-08T05:44:51;19.20;99.90
2212;DHT22;48849;48.758;9.158;2023-09-08T05:47:20;19.10;99.90
2212;DHT22;48849;48.758;9.158;2023-09-08T05:49:47;19.20;99.90
2212;DHT22;48849;48.758;9.158;2023-09-08T05:52:13;19.10;99.90
2212;DHT22;48849;48.758;9.158;2023-09-08T05:54:40;19.10;99.90
2212;DHT22;48849;48.758;9.158;2023-09-08T05:57:07;19.10;99.90
2212;DHT22;48849;48.758;9.158;2023-09-08T05:59:33;19.10;99.90
2212;DHT22;48849;48.758;9.158;2023-09-08T06:02:02;19.10;99.90
2212;DHT22;48849;48.758;9.158;2023-09-08T06:04:29;19.20;99.90
2212;DHT22;48849;48.758;9.158;2023-09-08T06:32:50;19.50;99.90
2212;DHT22;48849;48.758;9.158;2023-09-08T06:35:22;19.50;99.90
2212;DHT22;48849;48.758;9.158;2023-09-08T06:37:56;19.60;99.90
2212;DHT22;48849;48.758;9.158;2023-09-08T06:40:29;19.60;99.90
2212;DHT22;48849;48.758;9.158;2023-09-08T06:42:57;19.60;99.90
2212;DHT22;48849;48.758;9.158;2023-09-08T06:45:26;19.70;99.90
2212;DHT22;48849;48.758;9.158;2023-09-08T06:51:14;19.70;99.90
2212;DHT22;48849;48.758;9.158;2023-09-08T06:53:54;19.70;99.90
2212;DHT22;48849;48.758;9.158;2023-09-08T06:56:24;19.70;99.90
2212;DHT22;48849;48.758;9.158;2023-09-08T06:58:51;19.80;99.90
2212;DHT22;48849;48.758;9.158;2023-09-08T07:01:23;19.80;99.90
2212;DHT22;48849;48.758;9.158;2023-09-08T07:03:51;19.80;99.90
2212;DHT22;48849;48.758;9.158;2023-09-08T07:06:19;19.90;99.90
2212;DHT22;48849;48.758;9.158;2023-09-08T07:08:47;19.90;99.90
2212;DHT22;48849;48.758;9.158;2023-09-08T07:11:21;20.00;99.90
2212;DHT22;48849;48.758;9.158;2023-09-08T07:13:49;19.90;99.90
2212;DHT22;48849;48.758;9.158;2023-09-08T07:16:19;19.90;99.90
2212;DHT22;48849;48.758;9.158;2023-09-08T07:18:50;19.90;99.90
2212;DHT22;48849;48.758;9.158;2023-09-08T07:21:17;20.00;99.90
2212;DHT22;48849;48.758;9.158;2023-09-08T07:23:45;20.00;99.90
2212;DHT22;48849;48.758;9.158;2023-09-08T07:26:39;20.00;99.90
2212;DHT22;48849;48.758;9.158;2023-09-08T07:39:23;20.10;99.90
2212;DHT22;48849;48.758;9.158;2023-09-08T07:41:50;20.10;99.90
2212;DHT22;48849;48.758;9.158;2023-09-08T07:44:17;20.10;99.90
2212;DHT22;48849;48.758;9.158;2023-09-08T07:46:44;20.20;99.90
2212;DHT22;48849;48.758;9.158;2023-09-08T07:49:11;20.20;99.90
2212;DHT22;48849;48.758;9.158;2023-09-08T07:51:38;20.20;99.90
2212;DHT22;48849;48.758;9.158;2023-09-08T07:54:05;20.20;99.90
2212;DHT22;48849;48.758;9.158;2023-09-08T07:56:33;20.30;99.90
2212;DHT22;48849;48.758;9.158;2023-09-08T07:59:00;20.30;99.90
2212;DHT22;48849;48.758;9.158;2023-09-08T08:01:27;20.50;99.90
2212;DHT22;48849;48.758;9.158;2023-09-08T08:03:54;20.40;99.90
2212;DHT22;48849;48.758;9.158;2023-09-08T08:06:20;20.50;99.90
2212;DHT22;48849;48.758;9.158;2023-09-08T08:08:47;20.40;99.90
2212;DHT22;48849;48.758;9.158;2023-09-08T08:11:15;20.40;99.90
2212;DHT22;48849;48.758;9.158;2023-09-08T08:13:45;20.50;99.90
2212;DHT22;48849;48.758;9.158;2023-09-08T08:16:12;20.30;99.90
2212;DHT22;48849;48.758;9.158;2023-09-08T08:18:39;20.40;99.90
2212;DHT22;48849;48.758;9.158;2023-09-08T08:21:06;20.50;99.90
2212;DHT22;48849;48.758;9.158;2023-09-08T08:23:33;20.50;99.90
2212;DHT22;48849;48.758;9.158;2023-09-08T08:26:01;20.50;99.90
2212;DHT22;48849;48.758;9.158;2023-09-08T08:28:29;20.50;99.90
2212;DHT22;48849;48.758;9.158;2023-09-08T08:30:57;20.50;99.90
2212;DHT22;48849;48.758;9.158;2023-09-08T08:33:23;20.50;99.90
2212;DHT22;48849;48.758;9.158;2023-09-08T08:35:52;20.60;99.90
2212;DHT22;48849;48.758;9.158;2023-09-08T08:38:19;20.60;99.90
2212;DHT22;48849;48.758;9.158;2023-09-08T08:40:46;20.60;99.90
2212;DHT22;48849;48.758;9.158;2023-09-08T08:43:13;20.60;99.90
2212;DHT22;48849;48.758;9.158;2023-09-08T08:45:42;20.60;99.90
2212;DHT22;48849;48.758;9.158;2023-09-08T08:48:13;20.60;99.90
2212;DHT22;48849;48.758;9.158;2023-09-08T08:50:42;20.70;99.90
2212;DHT22;48849;48.758;9.158;2023-09-08T08:53:10;20.60;99.90
2212;DHT22;48849;48.758;9.158;2023-09-08T08:55:38;20.70;99.90
2212;DHT22;48849;48.758;9.158;2023-09-08T08:58:06;20.70;99.90
2212;DHT22;48849;48.758;9.158;2023-09-08T09:00:34;20.70;99.90
2212;DHT22;48849;48.758;9.158;2023-09-08T09:03:02;20.80;99.90
2212;DHT22;48849;48.758;9.158;2023-09-08T09:05:32;20.80;99.90
2212;DHT22;48849;48.758;9.158;2023-09-08T09:08:01;20.80;99.90
2212;DHT22;48849;48.758;9.158;2023-09-08T09:10:29;20.90;99.90
2212;DHT22;48849;48.758;9.158;2023-09-08T09:12:56;20.90;99.90
2212;DHT22;48849;48.758;9.158;2023-09-08T09:15:28;20.90;99.90
2212;DHT22;48849;48.758;9.158;2023-09-08T09:18:05;20.90;99.90
2212;DHT22;48849;48.758;9.158;2023-09-08T09:20:36;21.00;99.90
2212;DHT22;48849;48.758;9.158;2023-09-08T09:23:05;21.00;99.90
2212;DHT22;48849;48.758;9.158;2023-09-08T09:25:33;21.00;99.90
2212;DHT22;48849;48.758;9.158;2023-09-08T09:28:02;21.00;99.90
2212;DHT22;48849;48.758;9.158;2023-09-08T09:30:47;21.10;99.90
2212;DHT22;48849;48.758;9.158;2023-09-08T09:33:15;21.10;99.90
2212;DHT22;48849;48.758;9.158;2023-09-08T09:35:48;21.10;99.90
2212;DHT22;48849;48.758;9.158;2023-09-08T09:59:49;21.30;99.90
2212;DHT22;48849;48.758;9.158;2023-09-08T10:02:18;21.40;99.90
2212;DHT22;48849;48.758;9.158;2023-09-08T10:04:47;21.40;99.90
2212;DHT22;48849;48.758;9.158;2023-09-08T10:07:16;21.40;99.90
2212;DHT22;48849;48.758;9.158;2023-09-08T10:09:44;21.50;99.90
2212;DHT22;48849;48.758;9.158;2023-09-08T10:12:13;21.50;99.90
2212;DHT22;48849;48.758;9.158;2023-09-08T10:14:42;21.50;99.90
2212;DHT22;48849;48.758;9.158;2023-09-08T10:17:15;21.50;99.90
2212;DHT22;48849;48.758;9.158;2023-09-08T10:19:45;21.60;99.90
2212;DHT22;48849;48.758;9.158;2023-09-08T10:22:20;21.50;99.90
2212;DHT22;48849;48.758;9.158;2023-09-08T10:24:50;21.60;99.90
2212;DHT22;48849;48.758;9.158;2023-09-08T10:27:21;21.60;99.90
2212;DHT22;48849;48.758;9.158;2023-09-08T10:29:50;21.60;99.90
2212;DHT22;48849;48.758;9.158;2023-09-08T10:32:22;21.70;99.90
2212;DHT22;48849;48.758;9.158;2023-09-08T10:34:50;21.70;99.90
2212;DHT22;48849;48.758;9.158;2023-09-08T10:37:20;21.70;99.90
2212;DHT22;48849;48.758;9.158;2023-09-08T10:45:15;22.00;99.90
2212;DHT22;48849;48.758;9.158;2023-09-08T10:47:56;22.00;99.90
2212;DHT22;48849;48.758;9.158;2023-09-08T10:50:31;22.00;99.90
2212;DHT22;48849;48.758;9.158;2023-09-08T11:52:35;24.10;99.90
2212;DHT22;48849;48.758;9.158;2023-09-08T11:55:04;24.30;99.90
2212;DHT22;48849;48.758;9.158;2023-09-08T12:00:02;24.50;99.90
2212;DHT22;48849;48.758;9.158;2023-09-08T12:02:36;24.70;99.90
2212;DHT22;48849;48.758;9.158;2023-09-08T12:11:14;25.20;99.90
2212;DHT22;48849;48.758;9.158;2023-09-08T12:13:41;25.30;99.90
2212;DHT22;48849;48.758;9.158;2023-09-08T12:16:18;25.40;99.90
2212;DHT22;48849;48.758;9.158;2023-09-08T12:18:45;25.50;99.90
2212;DHT22;48849;48.758;9.158;2023-09-08T12:21:14;25.60;99.90
2212;DHT22;48849;48.758;9.158;2023-09-08T12:23:49;25.70;99.90
2212;DHT22;48849;48.758;9.158;2023-09-08T12:26:22;25.70;99.90
2212;DHT22;48849;48.758;9.158;2023-09-08T12:32:51;25.90;99.90
2212;DHT22;48849;48.758;9.158;2023-09-08T12:35:25;25.80;99.90
2212;DHT22;48849;48.758;9.158;2023-09-08T12:38:04;25.80;99.90
2212;DHT22;48849;48.758;9.158;2023-09-08T12:40:43;25.80;99.90
2212;DHT22;48849;48.758;9.158;2023-09-08T12:43:28;25.90;99.90
2212;DHT22;48849;48.758;9.158;2023-09-08T12:45:55;25.80;99.90
2212;DHT22;48849;48.758;9.158;2023-09-08T12:48:37;26.00;99.90
2212;DHT22;48849;48.758;9.158;2023-09-08T12:51:07;25.80;99.90
2212;DHT22;48849;48.758;9.158;2023-09-08T12:53:36;25.80;99.90
2212;DHT22;48849;48.758;9.158;2023-09-08T12:56:06;25.80;99.90
2212;DHT22;48849;48.758;9.158;2023-09-08T12:58:40;25.80;99.90
2212;DHT22;48849;48.758;9.158;2023-09-08T13:01:10;25.80;99.90
2212;DHT22;48849;48.758;9.158;2023-09-08T13:03:58;25.70;99.90
2212;DHT22;48849;48.758;9.158;2023-09-08T13:06:28;25.70;99.90
2212;DHT22;48849;48.758;9.158;2023-09-08T13:09:00;25.60;99.90
2212;DHT22;48849;48.758;9.158;2023-09-08T13:11:32;25.40;99.90
2212;DHT22;48849;48.758;9.158;2023-09-08T13:14:11;25.30;99.90
2212;DHT22;48849;48.758;9.158;2023-09-08T13:16:45;25.30;99.90
2212;DHT22;48849;48.758;9.158;2023-09-08T13:19:15;25.20;99.90
2212;DHT22;48849;48.758;9.158;2023-09-08T13:21:47;25.10;99.90
2212;DHT22;48849;48.758;9.158;2023-09-08T13:24:13;25.10;99.90
2212;DHT22;48849;48.758;9.158;2023-09-08T13:26:48;25.00;99.90
2212;DHT22;48849;48.758;9.158;2023-09-08T13:29:21;24.90;99.90
2212;DHT22;48849;48.758;9.158;2023-09-08T13:31:58;24.90;99.90
2212;DHT22;48849;48.758;9.158;2023-09-08T13:34:29;24.80;99.90
2212;DHT22;48849;48.758;9.158;2023-09-08T13:37:04;24.80;99.90
2212;DHT22;48849;48.758;9.158;2023-09-08T13:39:34;24.70;99.90
2212;DHT22;48849;48.758;9.158;2023-09-08T13:42:12;24.60;99.90
2212;DHT22;48849;48.758;9.158;2023-09-08T13:44:54;24.60;99.90
2212;DHT22;48849;48.758;9.158;2023-09-08T13:47:23;24.50;99.90
2212;DHT22;48849;48.758;9.158;2023-09-08T13:49:57;24.40;99.90
2212;DHT22;48849;48.758;9.158;2023-09-08T13:52:24;24.50;99.90
2212;DHT22;48849;48.758;9.158;2023-09-08T13:54:59;24.40;99.90
2212;DHT22;48849;48.758;9.158;2023-09-08T13:57:29;24.40;99.90
2212;DHT22;48849;48.758;9.158;2023-09-08T14:00:13;24.40;99.90
2212;DHT22;48849;48.758;9.158;2023-09-08T14:05:52;24.20;99.90
2212;DHT22;48849;48.758;9.158;2023-09-08T14:08:45;24.20;99.90
2212;DHT22;48849;48.758;9.158;2023-09-08T14:14:32;24.00;99.90
2212;DHT22;48849;48.758;9.158;2023-09-08T14:17:00;24.00;99.90
2212;DHT22;48849;48.758;9.158;2023-09-08T14:19:27;24.00;99.90
2212;DHT22;48849;48.758;9.158;2023-09-08T14:21:54;24.00;99.90
2212;DHT22;48849;48.758;9.158;2023-09-08T14:24:23;23.90;99.90
2212;DHT22;48849;48.758;9.158;2023-09-08T14:26:52;23.90;99.90
2212;DHT22;48849;48.758;9.158;2023-09-08T14:29:21;23.80;99.90
2212;DHT22;48849;48.758;9.158;2023-09-08T14:31:48;23.80;99.90
2212;DHT22;48849;48.758;9.158;2023-09-08T14:34:16;23.80;99.90
2212;DHT22;48849;48.758;9.158;2023-09-08T14:43:44;23.60;99.90
2212;DHT22;48849;48.758;9.158;2023-09-08T14:47:12;23.70;99.90
2212;DHT22;48849;48.758;9.158;2023-09-08T14:56:29;23.40;99.90
2212;DHT22;48849;48.758;9.158;2023-09-08T15:06:31;23.40;99.90
2212;DHT22;48849;48.758;9.158;2023-09-08T15:18:15;23.30;99.90
2212;DHT22;48849;48.758;9.158;2023-09-08T15:24:12;23.20;99.90
2212;DHT22;48849;48.758;9.158;2023-09-08T15:27:10;23.20;99.90
2212;DHT22;48849;48.758;9.158;2023-09-08T15:33:33;23.20;99.90
2212;DHT22;48849;48.758;9.158;2023-09-08T15:46:02;23.10;99.90
2212;DHT22;48849;48.758;9.158;2023-09-08T15:55:05;23.10;99.90
2212;DHT22;48849;48.758;9.158;2023-09-08T16:04:15;23.00;99.90
2212;DHT22;48849;48.758;9.158;2023-09-08T16:06:45;23.00;99.90
2212;DHT22;48849;48.758;9.158;2023-09-08T16:09:12;23.00;99.90
2212;DHT22;48849;48.758;9.158;2023-09-08T16:19:28;23.00;99.90
2212;DHT22;48849;48.758;9.158;2023-09-08T16:24:51;23.00;99.90
2212;DHT22;48849;48.758;9.158;2023-09-08T16:27:19;23.00;99.90
2212;DHT22;48849;48.758;9.158;2023-09-08T16:33:09;23.00;99.90
2212;DHT22;48849;48.758;9.158;2023-09-08T16:45:08;22.90;99.90
2212;DHT22;48849;48.758;9.158;2023-09-08T16:48:20;22.80;99.90
2212;DHT22;48849;48.758;9.158;2023-09-08T17:03:02;22.80;99.90
2212;DHT22;48849;48.758;9.158;2023-09-08T17:05:29;22.80;99.90
2212;DHT22;48849;48.758;9.158;2023-09-08T17:08:10;22.90;99.90
2212;DHT22;48849;48.758;9.158;2023-09-08T17:10:37;22.80;99.90
2212;DHT22;48849;48.758;9.158;2023-09-08T17:13:12;22.80;99.90
2212;DHT22;48849;48.758;9.158;2023-09-08T17:15:54;22.80;99.90
2212;DHT22;48849;48.758;9.158;2023-09-08T17:18:23;22.80;99.90
2212;DHT22;48849;48.758;9.158;2023-09-08T17:20:50;22.80;99.90
2212;DHT22;48849;48.758;9.158;2023-09-08T17:23:17;22.80;99.90
2212;DHT22;48849;48.758;9.158;2023-09-08T17:25:44;22.80;99.90
2212;DHT22;48849;48.758;9.158;2023-09-08T17:28:13;22.80;99.90
2212;DHT22;48849;48.758;9.158;2023-09-08T17:30:40;22.80;99.90
2212;DHT22;48849;48.758;9.158;2023-09-08T17:33:07;22.80;99.90
2212;DHT22;48849;48.758;9.158;2023-09-08T17:35:36;22.80;99.90
2212;DHT22;48849;48.758;9.158;2023-09-08T17:38:03;22.70;99.90
2212;DHT22;48849;48.758;9.158;2023-09-08T17:40:31;22.70;99.90
2212;DHT22;48849;48.758;9.158;2023-09-08T17:42:58;22.70;99.90
2212;DHT22;48849;48.758;9.158;2023-09-08T17:45:25;22.70;99.90
2212;DHT22;48849;48.758;9.158;2023-09-08T17:47:51;22.70;99.90
2212;DHT22;48849;48.758;9.158;2023-09-08T17:50:18;22.70;99.90
2212;DHT22;48849;48.758;9.158;2023-09-08T17:52:46;22.70;99.90
2212;DHT22;48849;48.758;9.158;2023-09-08T17:55:13;22.70;99.90
2212;DHT22;48849;48.758;9.158;2023-09-08T17:57:40;22.70;99.90
2212;DHT22;48849;48.758;9.158;2023-09-08T18:00:07;22.70;99.90
2212;DHT22;48849;48.758;9.158;2023-09-08T18:02:34;22.70;99.90
2212;DHT22;48849;48.758;9.158;2023-09-08T18:05:19;22.60;99.90
2212;DHT22;48849;48.758;9.158;2023-09-08T18:07:57;22.60;99.90
2212;DHT22;48849;48.758;9.158;2023-09-08T18:13:24;22.60;99.90
2212;DHT22;48849;48.758;9.158;2023-09-08T18:16:04;22.60;99.90
2212;DHT22;48849;48.758;9.158;2023-09-08T18:18:48;22.60;99.90
2212;DHT22;48849;48.758;9.158;2023-09-08T18:21:24;22.60;99.90
2212;DHT22;48849;48.758;9.158;2023-09-08T18:24:07;22.50;99.90
2212;DHT22;48849;48.758;9.158;2023-09-08T18:26:46;22.50;99.90
2212;DHT22;48849;48.758;9.158;2023-09-08T18:29:13;22.50;99.90
2212;DHT22;48849;48.758;9.158;2023-09-08T18:31:51;22.50;99.90
2212;DHT22;48849;48.758;9.158;2023-09-08T18:34:32;22.40;99.90
2212;DHT22;48849;48.758;9.158;2023-09-08T18:36:59;22.40;99.90
2212;DHT22;48849;48.758;9.158;2023-09-08T18:39:42;22.40;99.90
2212;DHT22;48849;48.758;9.158;2023-09-08T18:45:46;22.40;99.90
2212;DHT22;48849;48.758;9.158;2023-09-08T18:54:16;22.30;99.90
2212;DHT22;48849;48.758;9.158;2023-09-08T18:56:44;22.30;99.90
2212;DHT22;48849;48.758;9.158;2023-09-08T18:59:11;22.30;99.90
2212;DHT22;48849;48.758;9.158;2023-09-08T19:01:37;22.30;99.90
2212;DHT22;48849;48.758;9.158;2023-09-08T19:04:05;22.30;99.90
2212;DHT22;48849;48.758;9.158;2023-09-08T19:06:32;22.30;99.90
2212;DHT22;48849;48.758;9.158;2023-09-08T19:08:58;22.30;99.90
2212;DHT22;48849;48.758;9.158;2023-09-08T19:11:25;22.20;99.90
2212;DHT22;48849;48.758;9.158;2023-09-08T19:13:53;22.20;99.90
2212;DHT22;48849;48.758;9.158;2023-09-08T19:16:20;22.20;99.90
2212;DHT22;48849;48.758;9.158;2023-09-08T19:18:47;22.20;99.90
2212;DHT22;48849;48.758;9.158;2023-09-08T19:21:13;22.20;99.90
2212;DHT22;48849;48.758;9.158;2023-09-08T19:23:40;22.20;99.90
2212;DHT22;48849;48.758;9.158;2023-09-08T19:26:07;22.20;99.90
2212;DHT22;48849;48.758;9.158;2023-09-08T19:28:34;22.20;99.90
2212;DHT22;48849;48.758;9.158;2023-09-08T19:31:02;22.20;99.90
2212;DHT22;48849;48.758;9.158;2023-09-08T19:33:29;22.20;99.90
2212;DHT22;48849;48.758;9.158;2023-09-08T19:35:55;22.20;99.90
2212;DHT22;48849;48.758;9.158;2023-09-08T19:38:22;22.10;99.90
2212;DHT22;48849;48.758;9.158;2023-09-08T19:40:59;22.10;99.90
2212;DHT22;48849;48.758;9.158;2023-09-08T19:43:26;22.20;99.90
2212;DHT22;48849;48.758;9.158;2023-09-08T19:45:53;22.10;99.90
2212;DHT22;48849;48.758;9.158;2023-09-08T19:48:21;22.10;99.90
2212;DHT22;48849;48.758;9.158;2023-09-08T19:50:48;22.10;99.90
2212;DHT22;48849;48.758;9.158;2023-09-08T19:53:15;22.10;99.90
2212;DHT22;48849;48.758;9.158;2023-09-08T19:55:44;22.00;99.90
2212;DHT22;48849;48.758;9.158;2023-09-08T19:58:11;22.00;99.90
2212;DHT22;48849;48.758;9.158;2023-09-08T20:00:38;22.00;99.90
2212;DHT22;48849;48.758;9.158;2023-09-08T20:03:05;22.00;99.90
2212;DHT22;48849;48.758;9.158;2023-09-08T20:05:33;22.00;99.90
2212;DHT22;48849;48.758;9.158;2023-09-08T20:08:00;22.00;99.90
2212;DHT22;48849;48.758;9.158;2023-09-08T20:10:27;22.00;99.90
2212;DHT22;48849;48.758;9.158;2023-09-08T20:12:54;21.90;99.90
2212;DHT22;48849;48.758;9.158;2023-09-08T20:15:20;21.90;99.90